Latest Weather Observations for Middle Point

IDD60901

Issued at 6:01 pm CST Thursday 21 September 2017 (issued every 10 minutes, with the page automatically refreshed every 10 minutes)

About weather observations | Map of Darwin area stations | Latest observations for Darwin area | Other Formats
Station Details ID: 014041 Name: MIDDLE POINT Lat: -12.61 Lon: 131.30 Height: 14.1 m
Data from the previous 72 hours. | See also: Recent months at Middle Point
Date/Time
CST
Temp
°C
App
Temp
°C
Dew
Point
°C
Rel
Hum
%
Delta-T
°C
Wind Press
QNH
hPa
Press
MSL
hPa
Rain since
9am
mm
Dir  Spd
km/h
Gust
km/h
Spd
kts
Gust
kts
21/06:00pm 32.0 32.6 20.3 50 7.8 N 17 24 9 13 1008.3 1008.2 0.0
21/05:30pm 33.1 32.8 19.6 45 8.9 N 20 26 11 14 1008.2 1008.1 0.0
21/05:00pm 34.2 34.4 20.2 43 9.3 N 19 28 10 15 1008.1 1008.0 0.0
21/04:30pm 34.1 33.5 19.7 42 9.6 NNE 22 32 12 17 1008.2 1008.1 0.0
21/04:00pm 34.8 35.1 20.7 43 9.5 N 20 28 11 15 1008.3 1008.2 0.0
21/03:30pm 35.0 34.6 20.2 42 9.9 NNE 22 35 12 19 1008.5 1008.4 0.0
21/03:00pm 34.5 33.5 19.7 41 9.8 N 24 33 13 18 1008.6 1008.5 0.0
21/02:30pm 34.6 34.6 20.2 43 9.6 N 20 30 11 16 1008.9 1008.8 0.0
21/02:00pm 36.1 35.7 16.3 31 12.6 NNE 13 20 7 11 1009.3 1009.2 0.0
21/01:30pm 37.0 37.9 17.6 32 12.6 ENE 9 19 5 10 1009.9 1009.9 0.0
21/01:00pm 35.9 36.5 17.6 34 11.9 ENE 11 22 6 12 1010.4 1010.4 0.0
21/12:30pm 35.9 36.2 18.0 34 11.7 ENE 13 20 7 11 1011.1 1011.0 0.0
21/12:00pm 35.1 34.0 17.3 34 11.5 ENE 19 30 10 16 1011.8 1011.7 0.0
21/11:30am 34.2 34.3 17.4 36 10.8 ESE 13 22 7 12 1012.2 1012.1 0.0
21/11:00am 33.8 34.3 17.5 38 10.5 ESE 11 22 6 12 1012.7 1012.6 0.0
21/10:30am 33.2 34.5 19.3 44 9.1 E 11 24 6 13 1013.0 1012.9 0.0
21/10:00am 32.4 35.2 21.6 53 7.3 E 9 17 5 9 1013.2 1013.1 0.0
21/09:30am 30.8 33.9 22.1 59 5.9 SE 9 15 5 8 1013.3 1013.2 0.0
21/09:00am 29.2 33.2 22.7 68 4.4 N 6 9 3 5 1013.4 1013.3 0.0
21/08:30am 28.6 33.4 22.8 71 3.9 E 2 4 1 2 1013.3 1013.2 0.0
21/08:00am 26.6 31.8 22.9 80 2.5 CALM 0 2 0 1 1013.1 1013.0 0.0
21/07:30am 23.3 28.1 22.1 93 0.8 CALM 0 2 0 1 1012.9 1012.8 0.0
21/07:00am 21.4 25.2 20.2 93 0.8 CALM 0 0 0 0 1012.5 1012.4 0.0
21/06:30am 21.7 25.4 20.0 90 1.1 CALM 0 0 0 0 1012.1 1012.0 0.0
21/06:00am 21.7 25.6 20.3 92 0.9 CALM 0 0 0 0 1011.9 1011.8 0.0
21/05:30am 22.0 26.0 20.6 92 0.9 CALM 0 0 0 0 1011.7 1011.6 0.0
21/05:00am 22.4 26.6 21.0 92 0.9 CALM 0 0 0 0 1011.5 1011.4 0.0
21/04:30am 22.2 26.3 20.7 91 1.0 CALM 0 0 0 0 1011.3 1011.2 0.0
21/04:00am 21.9 25.7 20.2 90 1.1 CALM 0 0 0 0 1011.2 1011.1 0.0
21/03:30am 22.9 26.8 20.4 86 1.6 CALM 0 0 0 0 1011.1 1011.0 0.0
21/03:00am 23.3 26.6 21.4 89 1.3 NE 6 7 3 4 1011.2 1011.1 0.0
21/02:30am 23.2 27.7 21.5 90 1.1 CALM 0 2 0 1 1011.3 1011.2 0.0
21/02:00am 22.7 26.3 20.6 88 1.4 N 2 2 1 1 1011.5 1011.4 0.0
21/01:30am 23.1 26.0 20.6 86 1.6 N 6 6 3 3 1011.8 1011.7 0.0
21/01:00am 23.2 26.4 20.5 85 1.8 N 4 4 2 2 1012.1 1012.0 0.0
21/12:30am 24.4 29.0 21.7 85 1.8 CALM 0 2 0 1 1012.4 1012.3 0.0
21/12:00am 24.4 28.5 21.5 84 1.9 ENE 2 4 1 2 1012.4 1012.3 0.0
 
Date/Time
CST
Temp
°C
App
Temp
°C
Dew
Point
°C
Rel
Hum
%
Delta-T
°C
Wind Press
QNH
hPa
Press
MSL
hPa
Rain since
9am
mm
Dir  Spd
km/h
Gust
km/h
Spd
kts
Gust
kts
20/11:30pm 24.0 27.5 21.1 84 1.9 NNE 4 6 2 3 1012.2 1012.1 0.0
20/11:00pm 25.0 29.4 21.3 80 2.4 CALM 0 0 0 0 1012.1 1012.0 0.0
20/10:30pm 24.9 28.6 20.8 78 2.7 WNW 2 2 1 1 1012.0 1011.9 0.0
20/10:00pm 25.7 29.1 20.9 75 3.2 WNW 4 4 2 2 1011.9 1011.8 0.0
20/09:30pm 25.7 29.1 20.9 75 3.2 WNW 4 4 2 2 1011.8 1011.7 0.0
20/09:00pm 25.9 28.6 20.2 71 3.7 WNW 6 6 3 3 1011.4 1011.3 0.0
20/08:30pm 26.5 30.1 20.6 70 3.9 NNW 2 2 1 1 1011.2 1011.1 0.0
20/08:00pm 27.7 31.1 21.0 67 4.4 NNW 4 6 2 3 1010.9 1010.8 0.0
20/07:30pm 28.4 31.7 20.7 63 5.1 NW 4 4 2 2 1010.3 1010.3 0.0
20/07:00pm 29.1 31.9 20.8 61 5.5 NNW 7 13 4 7 1010.0 1010.0 0.0
20/06:30pm 30.4 31.7 20.9 57 6.3 N 15 19 8 10 1009.5 1009.4 0.0
20/06:00pm 31.8 32.6 20.7 51 7.4 N 17 24 9 13 1008.9 1008.8 0.0
20/05:30pm 33.1 33.2 20.3 47 8.5 NNE 20 26 11 14 1008.5 1008.4 0.0
20/05:00pm 33.8 34.0 20.2 44 9.1 N 19 24 10 13 1008.4 1008.3 0.0
20/04:30pm 35.4 35.7 19.7 39 10.5 N 17 24 9 13 1008.4 1008.3 0.0
20/04:00pm 35.4 35.8 18.9 37 10.9 N 15 20 8 11 1008.6 1008.5 0.0
20/03:30pm 36.0 35.6 19.4 37 11.0 NNE 20 28 11 15 1008.7 1008.6 0.0
20/03:00pm 34.5 33.5 18.9 39 10.3 NNE 22 33 12 18 1009.0 1008.9 0.0
20/02:30pm 38.2 35.2 12.7 21 15.6 E 20 35 11 19 1009.2 1009.1 0.0
20/02:00pm 37.5 34.0 13.5 24 14.8 ENE 24 37 13 20 1009.7 1009.6 0.0
20/01:30pm 37.3 34.2 13.3 23 14.7 E 22 35 12 19 1010.3 1010.3 0.0
20/01:00pm 36.2 34.7 15.3 28 13.1 E 17 30 9 16 1011.0 1010.9 0.0
20/12:30pm 35.7 33.5 15.9 30 12.5 E 22 37 12 20 1011.5 1011.4 0.0
20/12:00pm 35.3 33.5 16.1 32 12.2 ENE 20 30 11 16 1012.1 1012.0 0.0
20/11:30am 34.7 35.3 18.7 38 10.5 E 13 26 7 14 1012.6 1012.5 0.0
20/11:00am 32.9 34.0 19.7 45 8.7 ESE 13 20 7 11 1013.4 1013.3 0.0
20/10:30am 33.0 34.5 19.8 45 8.7 ESE 11 24 6 13 1013.8 1013.7 0.0
20/10:00am 31.8 33.8 20.7 51 7.4 ESE 11 20 6 11 1014.0 1013.9 0.0
20/09:30am 30.4 34.1 22.3 62 5.5 ENE 6 15 3 8 1014.1 1014.0 0.0
20/09:00am 29.4 33.7 22.6 67 4.6 ESE 4 9 2 5 1014.1 1014.0 0.0
20/08:30am 28.1 32.0 22.6 72 3.7 SSE 6 7 3 4 1013.8 1013.7 0.0
20/08:00am 26.7 30.9 22.5 78 2.8 SW 4 6 2 3 1013.5 1013.4 0.0
20/07:30am 24.1 28.7 22.5 91 1.1 W 2 4 1 2 1013.3 1013.2 0.0
20/07:00am 21.8 25.3 20.4 92 0.9 NW 2 4 1 2 1013.1 1013.0 0.0
20/06:30am 21.6 25.1 20.4 93 0.8 NW 2 2 1 1 1012.8 1012.7 0.0
20/06:00am 21.4 24.4 20.0 92 0.9 NW 4 4 2 2 1012.5 1012.4 0.0
20/05:30am 21.9 25.0 20.2 90 1.1 N 4 4 2 2 1012.3 1012.2 0.0
20/05:00am 23.0 26.2 20.5 86 1.6 N 4 4 2 2 1012.2 1012.1 0.0
20/04:30am 23.6 27.3 20.7 84 1.9 N 2 4 1 2 1012.2 1012.1 0.0
20/04:00am 24.4 28.3 21.1 82 2.2 W 2 4 1 2 1012.0 1011.9 0.0
20/03:30am 24.8 29.2 21.3 81 2.3 CALM 0 0 0 0 1012.3 1012.2 0.0
20/03:00am 24.5 28.8 21.2 82 2.2 CALM 0 0 0 0 1012.4 1012.3 0.0
20/02:30am 24.3 27.9 21.2 83 2.0 NW 4 6 2 3 1012.6 1012.5 0.0
20/02:00am 23.9 28.2 21.2 85 1.8 CALM 0 4 0 2 1012.8 1012.7 0.0
20/01:30am 23.1 25.6 20.2 84 1.9 WNW 7 9 4 5 1013.0 1012.9 0.0
20/01:00am 24.3 27.5 21.6 85 1.8 N 7 7 4 4 1013.1 1013.0 0.0
20/12:30am 23.7 26.3 20.4 82 2.1 NNE 7 9 4 5 1013.3 1013.2 0.0
20/12:00am 23.6 26.0 20.1 81 2.3 NE 7 9 4 5 1013.6 1013.5 0.0
 
Date/Time
CST
Temp
°C
App
Temp
°C
Dew
Point
°C
Rel
Hum
%
Delta-T
°C
Wind Press
QNH
hPa
Press
MSL
hPa
Rain since
9am
mm
Dir  Spd
km/h
Gust
km/h
Spd
kts
Gust
kts
19/11:30pm 23.1 26.0 19.9 82 2.1 NNE 4 6 2 3 1013.7 1013.6 0.0
19/11:00pm 23.5 26.3 19.6 79 2.5 NNE 4 4 2 2 1013.7 1013.6 0.0
19/10:30pm 24.1 27.4 20.0 78 2.7 NE 2 6 1 3 1013.6 1013.5 0.0
19/10:00pm 23.9 26.8 19.8 78 2.6 W 4 6 2 3 1013.4 1013.3 0.0
19/09:30pm 24.6 27.9 19.9 75 3.0 W 2 2 1 1 1013.0 1012.9 0.0
19/09:00pm 25.5 28.9 20.1 72 3.5 W 2 4 1 2 1012.6 1012.5 0.0
19/08:30pm 25.4 27.7 19.8 71 3.6 W 7 9 4 5 1012.3 1012.2 0.0
19/08:00pm 26.7 28.6 19.8 66 4.5 W 9 11 5 6 1012.0 1011.9 0.0
19/07:30pm 28.0 30.4 20.0 61 5.2 NNW 7 9 4 5 1011.4 1011.3 0.0
19/07:00pm 29.3 31.3 19.9 57 6.2 NNW 9 13 5 7 1010.7 1010.7 0.0
19/06:30pm 30.9 32.7 19.6 51 7.4 NNW 9 13 5 7 1010.1 1010.1 0.0
19/06:00pm 32.8 33.8 18.6 43 9.2 N 11 15 6 8 1009.6 1009.5 0.0
19/05:30pm 33.9 33.3 17.6 38 10.5 N 17 22 9 12 1009.2 1009.1 0.0
19/05:00pm 34.9 33.9 17.6 35 11.2 N 19 28 10 15 1009.0 1008.9 0.0
19/04:30pm 36.1 37.3 16.8 32 12.4 E 6 15 3 8 1009.1 1009.0 0.0
19/04:00pm 37.4 35.0 11.4 21 15.5 ENE 15 24 8 13 1009.1 1009.0 0.0
19/03:30pm 37.4 35.0 11.4 21 15.5 ESE 15 28 8 15 1009.3 1009.2 0.0
19/03:00pm 37.3 34.9 11.3 21 15.5 ESE 15 28 8 15 1009.7 1009.6 0.0
19/02:30pm 37.1 34.4 11.8 22 15.2 ENE 17 30 9 16 1010.2 1010.2 0.0
19/02:00pm 37.0 35.3 13.7 25 14.3 ENE 15 32 8 17 1010.7 1010.7 0.0
19/01:30pm 36.4 35.3 14.4 27 13.7 SE 13 26 7 14 1011.3 1011.2 0.0
19/01:00pm 35.7 33.5 14.4 28 13.2 E 19 32 10 17 1011.9 1011.8 0.0
19/12:30pm 35.5 34.4 14.2 28 13.1 ESE 13 24 7 13 1012.5 1012.4 0.0
19/12:00pm 34.5 33.8 15.4 32 11.9 E 13 20 7 11 1013.1 1013.0 0.0
19/11:30am 34.0 33.5 15.9 33 11.4 ENE 13 20 7 11 1013.5 1013.4 0.0
19/11:00am 32.3 33.2 16.6 39 9.9 NNE 7 17 4 9 1014.0 1013.9 0.0
19/10:30am 31.3 32.9 18.3 46 8.4 SE 7 15 4 8 1014.5 1014.4 0.0
19/10:00am 30.5 31.9 18.6 49 7.7 SE 9 15 5 8 1014.7 1014.6 0.0
19/09:30am 28.6 31.7 21.1 64 5.0 NNW 6 11 3 6 1014.9 1014.8 0.0
19/09:00am 27.5 31.5 22.0 72 3.7 WNW 4 7 2 4 1015.0 1014.9 0.0
19/08:30am 25.5 29.9 22.8 85 1.8 SW 4 6 2 3 1014.9 1014.8 0.0
19/08:00am 22.8 27.1 21.1 90 1.1 CALM 0 0 0 0 1014.7 1014.6 0.0
19/07:30am 20.8 24.4 20.5 98 0.2 E 2 4 1 2 1014.5 1014.4 0.0
19/07:00am 19.4 22.3 19.1 98 0.2 ESE 2 4 1 2 1014.1 1014.0 0.0
19/06:30am 19.6 22.7 19.4 99 0.1 SSW 2 2 1 1 1013.9 1013.8 0.0
19/06:00am 19.2 21.1 18.9 98 0.2 SSW 7 9 4 5 1013.5 1013.4 0.0
19/05:30am 17.6 18.8 16.8 95 0.5 W 6 6 3 3 1013.1 1013.0 0.0
19/05:00am 18.2 20.1 17.6 96 0.4 E 4 6 2 3 1013.1 1013.0 0.0
19/04:30am 18.8 21.7 18.1 96 0.4 CALM 0 0 0 0 1013.1 1013.0 0.0
19/04:00am 18.7 21.4 17.7 94 0.6 CALM 0 0 0 0 1013.1 1013.0 0.0
19/03:30am 19.4 21.7 18.6 95 0.5 E 4 7 2 4 1013.2 1013.1 0.0
19/03:00am 19.5 21.6 19.0 97 0.3 E 6 7 3 4 1013.2 1013.1 0.0
19/02:30am 19.3 22.2 19.0 98 0.2 NW 2 2 1 1 1013.4 1013.3 0.0
19/02:00am 18.3 20.2 17.7 96 0.4 NNW 4 6 2 3 1013.6 1013.5 0.0
19/01:30am 19.6 23.0 19.3 98 0.2 CALM 0 2 0 1 1014.1 1014.0 0.0
19/01:00am 19.4 22.1 18.6 95 0.5 N 2 2 1 1 1014.4 1014.3 0.0
19/12:30am 20.4 23.2 19.7 96 0.4 N 4 6 2 3 1014.7 1014.6 0.0
19/12:00am 20.6 23.2 19.3 92 0.8 NW 4 4 2 2 1014.9 1014.8 0.0
 
Date/Time
CST
Temp
°C
App
Temp
°C
Dew
Point
°C
Rel
Hum
%
Delta-T
°C
Wind Press
QNH
hPa
Press
MSL
hPa
Rain since
9am
mm
Dir  Spd
km/h
Gust
km/h
Spd
kts
Gust
kts
18/11:30pm 22.3 26.2 21.1 93 0.8 NW 2 4 1 2 1015.1 1015.0 0.0
18/11:00pm 22.9 26.8 21.9 94 0.7 NW 4 6 2 3 1014.9 1014.8 0.0
18/10:30pm 22.4 24.9 21.0 92 0.9 W 9 11 5 6 1014.8 1014.7 0.0
18/10:00pm 23.2 26.1 21.1 88 1.4 N 7 9 4 5 1014.8 1014.7 0.0
18/09:30pm 23.5 26.5 20.8 85 1.8 N 6 7 3 4 1014.4 1014.3 0.0
18/09:00pm 24.5 27.5 21.2 82 2.2 NW 7 11 4 6 1013.8 1013.7 0.0
18/08:30pm 24.9 27.6 21.4 81 2.3 WNW 9 13 5 7 1013.4 1013.3 0.0
18/08:00pm 25.7 28.5 21.6 78 2.7 NW 9 11 5 6 1013.0 1012.9 0.0
18/07:30pm 26.7 29.5 21.5 73 3.5 NW 9 13 5 7 1012.5 1012.4 0.0
18/07:00pm 27.9 29.8 21.4 67 4.3 NW 13 19 7 10 1012.0 1011.9 0.0
18/06:30pm 29.1 29.6 20.0 58 6.0 NNW 17 26 9 14 1011.5 1011.4 0.0

Latest Capital City Observations: Canberra | Sydney | Melbourne | Brisbane | Adelaide | Perth | Hobart | Darwin

Other Formats:

Comma delimited format used in spreadsheet applications
http://www.bom.gov.au/fwo/IDD60901/IDD60901.95121.axf

JavaScript Object Notation format (JSON) in row-major order
http://www.bom.gov.au/fwo/IDD60901/IDD60901.95121.json